Time;durP1;ratioP1;P1;durP2;ratioP2;P2;SDS_P1;SDS_P2;PMS_P1;PMS_P2;Temp;Humidity;BMP_temperature;BMP_pressure;BME280_temperature;BME280_humidity;BME280_pressure;Samples;Min_cycle;Max_cycle;Signal;HPM_P1;HPM_P2
2021/04/23 00:01:12;;;;;;;2.30;1.10;;;;;;;13.56;43.34;101694.94;5049407;28;20037;-69
2021/04/23 00:03:41;;;;;;;1.92;0.90;;;;;;;13.53;43.55;101683.34;5049532;28;20466;-69
2021/04/23 00:06:13;;;;;;;2.35;0.95;;;;;;;13.54;43.70;101680.75;5050059;28;20118;-69
2021/04/23 00:08:43;;;;;;;2.45;1.20;;;;;;;13.55;43.62;101687.84;5048693;28;20037;-69
2021/04/23 00:11:12;;;;;;;2.50;0.85;;;;;;;13.50;43.67;101675.34;5040024;28;20152;-69
2021/04/23 00:13:41;;;;;;;2.35;1.48;;;;;;;13.35;43.83;101669.75;5050187;28;20108;-68
2021/04/23 00:16:10;;;;;;;1.50;0.63;;;;;;;13.24;43.89;101666.03;5049198;28;20509;-69
2021/04/23 00:18:37;;;;;;;1.40;1.00;;;;;;;13.19;43.88;101668.59;5049924;28;20055;-69
2021/04/23 00:21:06;;;;;;;2.78;1.00;;;;;;;13.10;44.08;101666.63;5049583;28;20624;-69
2021/04/23 00:23:33;;;;;;;2.35;0.90;;;;;;;13.19;44.09;101659.75;5048823;28;20124;-69
2021/04/23 00:26:01;;;;;;;2.70;1.02;;;;;;;13.21;43.76;101661.53;5048660;28;20037;-68
2021/04/23 00:28:28;;;;;;;1.45;0.98;;;;;;;13.23;43.59;101656.28;5049398;28;20151;-68
2021/04/23 00:30:56;;;;;;;1.63;0.80;;;;;;;13.20;43.62;101651.78;5048730;28;20049;-69
2021/04/23 00:33:24;;;;;;;3.17;0.80;;;;;;;13.18;43.63;101650.00;5049756;28;20112;-69
2021/04/23 00:35:51;;;;;;;1.65;0.90;;;;;;;13.05;43.91;101647.06;5049341;28;20029;-69
2021/04/23 00:38:20;;;;;;;1.85;0.98;;;;;;;13.05;44.19;101651.47;5048886;28;20552;-69
2021/04/23 00:40:52;;;;;;;4.07;1.00;;;;;;;13.00;44.47;101650.47;5048681;28;20147;-69
2021/04/23 00:43:22;;;;;;;1.33;0.88;;;;;;;13.03;44.35;101647.91;5049592;28;20072;-69
2021/04/23 00:45:51;;;;;;;2.85;1.00;;;;;;;12.99;44.42;101643.41;5049335;28;20048;-69
2021/04/23 00:48:20;;;;;;;1.45;1.02;;;;;;;12.95;44.44;101646.84;5048660;28;20112;-69
2021/04/23 00:50:52;;;;;;;2.70;1.08;;;;;;;12.84;44.70;101649.28;5049072;28;20527;-69
2021/04/23 00:53:24;;;;;;;2.05;0.90;;;;;;;12.76;44.90;101641.19;5048494;28;20065;-69
2021/04/23 00:55:52;;;;;;;2.72;1.45;;;;;;;12.78;45.19;101641.22;5049110;28;20068;-68
2021/04/23 00:58:22;;;;;;;0.75;0.70;;;;;;;12.88;45.09;101642.28;5048352;28;20128;-69
2021/04/23 01:00:52;;;;;;;2.33;1.00;;;;;;;12.89;44.83;101638.78;5049521;28;20128;-69
2021/04/23 01:03:21;;;;;;;1.73;0.90;;;;;;;12.77;44.91;101629.72;5048758;28;20045;-69
2021/04/23 01:05:53;;;;;;;1.88;0.70;;;;;;;12.71;45.14;101634.91;5034796;28;20135;-68
2021/04/23 01:08:24;;;;;;;1.35;0.93;;;;;;;12.65;45.24;101637.41;5048966;28;20056;-69
2021/04/23 01:10:53;;;;;;;6.30;1.00;;;;;;;12.67;45.32;101643.63;5024059;28;20060;-69
2021/04/23 01:13:20;;;;;;;2.22;1.10;;;;;;;12.72;45.41;101635.78;5048725;28;20041;-69
2021/04/23 01:15:47;;;;;;;1.55;0.80;;;;;;;12.75;45.46;101628.78;5048673;28;20037;-68
2021/04/23 01:18:14;;;;;;;2.33;1.10;;;;;;;12.74;45.61;101629.63;5048085;28;20041;-69
2021/04/23 01:20:42;;;;;;;1.90;0.85;;;;;;;12.76;45.61;101633.22;5048470;28;20171;-69
2021/04/23 01:23:10;;;;;;;1.83;1.10;;;;;;;12.58;46.15;101627.56;5048933;28;20048;-69
2021/04/23 01:25:37;;;;;;;5.10;1.10;;;;;;;12.53;46.33;101629.22;5047453;28;20063;-68
2021/04/23 01:28:05;;;;;;;2.47;1.08;;;;;;;12.49;46.58;101630.00;5047513;28;20120;-68
2021/04/23 01:30:32;;;;;;;5.32;1.40;;;;;;;12.54;46.54;101625.69;5046158;28;20068;-69
2021/04/23 01:32:59;;;;;;;1.90;0.95;;;;;;;12.56;46.46;101629.25;5048316;28;20060;-69
2021/04/23 01:35:27;;;;;;;1.83;1.05;;;;;;;12.59;46.42;101615.19;5047373;28;20496;-69
2021/04/23 01:37:54;;;;;;;3.65;1.00;;;;;;;12.58;46.44;101624.91;5048022;28;20036;-69
2021/04/23 01:40:23;;;;;;;2.42;1.00;;;;;;;12.55;46.65;101624.81;5028324;28;20501;-68
2021/04/23 01:42:50;;;;;;;3.90;1.50;;;;;;;12.50;46.83;101621.19;5048538;28;20124;-69
2021/04/23 01:45:18;;;;;;;1.77;0.93;;;;;;;12.46;46.95;101615.81;5030652;28;20456;-69
2021/04/23 01:47:47;;;;;;;1.63;0.90;;;;;;;12.48;47.26;101614.06;5047267;28;20183;-68
2021/04/23 01:50:17;;;;;;;2.90;1.10;;;;;;;12.51;47.30;101622.09;5048301;28;20051;-69
2021/04/23 01:52:44;;;;;;;2.35;0.80;;;;;;;12.46;47.20;101615.81;5048023;28;20063;-68
2021/04/23 01:55:15;;;;;;;2.92;1.55;;;;;;;12.43;47.21;101613.97;5047148;28;20047;-68
2021/04/23 01:57:43;;;;;;;2.60;1.25;;;;;;;12.30;47.48;101615.47;5034496;28;20060;-68
2021/04/23 02:00:15;;;;;;;2.78;1.00;;;;;;;12.13;47.99;101618.59;5047559;28;20040;-69
2021/04/23 02:02:43;;;;;;;2.45;1.30;;;;;;;12.16;47.83;101616.91;5047619;28;20076;-68
2021/04/23 02:05:11;;;;;;;1.98;1.20;;;;;;;12.22;47.90;101618.78;5030619;28;20528;-68
2021/04/23 02:07:39;;;;;;;2.05;0.93;;;;;;;12.19;48.19;101610.78;5047095;28;20116;-69
2021/04/23 02:10:11;;;;;;;3.00;1.10;;;;;;;12.24;48.18;101603.84;5047082;28;20087;-68
2021/04/23 02:12:38;;;;;;;1.63;1.00;;;;;;;12.14;48.31;101601.84;5048260;28;20061;-73
2021/04/23 02:15:10;;;;;;;2.17;0.70;;;;;;;12.08;48.22;101599.06;5047697;28;20071;-69
2021/04/23 02:17:39;;;;;;;2.03;1.00;;;;;;;12.10;48.14;101605.28;5047459;28;20068;-69
2021/04/23 02:20:10;;;;;;;2.35;0.80;;;;;;;12.08;48.26;101607.88;5047587;28;20082;-68
2021/04/23 02:22:37;;;;;;;4.72;1.00;;;;;;;12.20;48.24;101612.59;5044666;28;20115;-68
2021/04/23 02:25:07;;;;;;;3.28;1.15;;;;;;;12.17;48.25;101608.09;5047528;28;20112;-68
2021/04/23 02:27:34;;;;;;;1.52;0.90;;;;;;;12.02;48.62;101605.09;5047968;28;20045;-68
2021/04/23 02:30:01;;;;;;;1.52;0.90;;;;;;;11.85;49.16;101603.81;5029743;28;20470;-68
2021/04/23 02:32:29;;;;;;;4.45;1.02;;;;;;;11.86;49.11;101603.88;5050757;28;20056;-69
2021/04/23 02:34:56;;;;;;;1.33;0.80;;;;;;;11.92;48.90;101597.81;5051983;28;20063;-68
2021/04/23 02:37:23;;;;;;;1.73;1.00;;;;;;;11.96;48.99;101597.00;5051943;28;20043;-68
2021/04/23 02:39:51;;;;;;;1.98;0.93;;;;;;;12.02;48.96;101593.59;5018040;28;20037;-68
2021/04/23 02:42:18;;;;;;;1.90;0.90;;;;;;;11.96;49.00;101594.38;5051165;28;20095;-68
2021/04/23 02:44:46;;;;;;;2.10;0.88;;;;;;;11.85;49.25;101599.41;5050888;28;20119;-68
2021/04/23 02:47:12;;;;;;;1.77;1.00;;;;;;;11.79;49.39;101604.56;5050498;28;20057;-68
2021/04/23 02:49:41;;;;;;;3.30;1.50;;;;;;;11.84;49.44;101594.97;5051304;28;20124;-68
2021/04/23 02:52:08;;;;;;;2.70;1.20;;;;;;;11.91;49.41;101598.66;5050316;28;20041;-68
2021/04/23 02:54:35;;;;;;;2.17;1.20;;;;;;;11.90;49.55;101589.84;5051262;28;20045;-68
2021/04/23 02:57:02;;;;;;;2.80;1.13;;;;;;;11.81;50.01;101587.00;5051120;28;20116;-69
2021/04/23 02:59:29;;;;;;;2.72;0.95;;;;;;;11.79;50.06;101583.41;5049090;28;20045;-68
2021/04/23 03:01:57;;;;;;;1.67;1.02;;;;;;;11.82;50.04;101575.53;5050870;28;20116;-69
2021/04/23 03:04:26;;;;;;;1.88;1.25;;;;;;;11.81;50.24;101575.50;5051769;28;20496;-68
2021/04/23 03:06:54;;;;;;;2.22;1.00;;;;;;;11.80;50.34;101581.66;5051216;28;20048;-68
2021/04/23 03:09:21;;;;;;;1.88;1.13;;;;;;;11.79;50.23;101578.13;5049899;28;20163;-69
2021/04/23 03:11:48;;;;;;;2.00;1.10;;;;;;;11.78;50.26;101578.97;5050883;28;20807;-68
2021/04/23 03:14:15;;;;;;;8.50;1.30;;;;;;;11.75;50.31;101584.16;5050619;28;20159;-68
2021/04/23 03:16:44;;;;;;;2.13;1.23;;;;;;;11.76;50.44;101585.97;5051014;28;20128;-68
2021/04/23 03:19:12;;;;;;;2.08;1.08;;;;;;;11.75;50.75;101585.94;5050790;28;20025;-68
2021/04/23 03:21:40;;;;;;;1.40;1.00;;;;;;;11.63;50.96;101589.13;5050732;28;20509;-68
2021/04/23 03:24:10;;;;;;;2.83;1.10;;;;;;;11.64;51.13;101588.28;5033339;28;20067;-69
2021/04/23 03:26:39;;;;;;;2.13;1.10;;;;;;;11.68;51.13;101583.97;5049641;28;20437;-68
2021/04/23 03:29:07;;;;;;;2.83;1.58;;;;;;;11.65;50.89;101583.88;5047183;28;20045;-68
2021/04/23 03:31:35;;;;;;;2.83;1.17;;;;;;;11.69;50.92;101594.56;5049799;28;20065;-68
2021/04/23 03:34:04;;;;;;;1.85;1.20;;;;;;;11.71;51.02;101597.25;5050561;28;20060;-68
2021/04/23 03:36:32;;;;;;;2.10;1.45;;;;;;;11.71;51.05;101591.97;5050700;28;20451;-68
2021/04/23 03:39:00;;;;;;;1.45;1.00;;;;;;;11.70;51.05;101591.06;5049425;28;20132;-67
2021/04/23 03:41:31;;;;;;;2.20;1.30;;;;;;;11.72;51.37;101597.31;5048231;28;20041;-68
2021/04/23 03:43:59;;;;;;;2.70;1.10;;;;;;;11.77;51.02;101590.41;5048014;28;20182;-69
2021/04/23 03:46:27;;;;;;;2.55;1.30;;;;;;;11.77;51.12;101593.03;5050233;28;20065;-69
2021/04/23 03:48:54;;;;;;;2.30;1.40;;;;;;;11.79;51.22;101599.28;5050043;28;20457;-68
2021/04/23 03:51:22;;;;;;;3.22;1.27;;;;;;;11.84;51.24;101600.28;5050050;28;20047;-68
2021/04/23 03:53:50;;;;;;;4.35;1.20;;;;;;;11.96;51.06;101608.50;5048518;28;20064;-68
2021/04/23 03:56:19;;;;;;;3.28;1.40;;;;;;;12.04;51.14;101605.13;5048789;28;20116;-68
2021/04/23 03:58:50;;;;;;;2.25;1.33;;;;;;;12.05;51.49;101613.13;5050296;28;20072;-68
2021/04/23 04:01:19;;;;;;;2.50;1.08;;;;;;;12.23;51.61;101616.19;5048512;28;20072;-69
2021/04/23 04:03:47;;;;;;;2.95;1.30;;;;;;;12.40;51.74;101605.97;5049917;28;20052;-68
2021/04/23 04:06:14;;;;;;;3.65;1.77;;;;;;;12.56;51.34;101613.38;5049783;28;20497;-68
2021/04/23 04:08:41;;;;;;;4.68;1.10;;;;;;;12.68;51.27;101607.44;5049568;28;20132;-68
2021/04/23 04:11:09;;;;;;;2.55;0.90;;;;;;;12.76;50.92;101601.44;5050035;28;20041;-68
2021/04/23 04:13:36;;;;;;;3.47;1.08;;;;;;;12.86;50.90;101604.28;5049334;28;20037;-68
2021/04/23 04:16:06;;;;;;;3.40;1.90;;;;;;;12.87;51.19;101613.97;5048264;28;20120;-68
2021/04/23 04:18:34;;;;;;;6.78;3.22;;;;;;;13.00;51.50;101616.91;5049811;28;20116;-69
2021/04/23 04:21:01;;;;;;;5.47;2.05;;;;;;;13.14;51.21;101615.47;5049162;28;20497;-69
2021/04/23 04:23:28;;;;;;;4.30;1.70;;;;;;;13.29;51.24;101614.84;5049249;28;20072;-69
2021/04/23 04:25:57;;;;;;;3.47;1.20;;;;;;;13.49;51.25;101618.75;5049949;28;20449;-68
2021/04/23 04:28:25;;;;;;;2.22;1.20;;;;;;;13.76;51.07;101613.03;5050081;28;20068;-69
2021/04/23 04:30:52;;;;;;;1.95;0.80;;;;;;;13.95;50.93;101615.09;5044556;28;20052;-69
2021/04/23 04:33:21;;;;;;;1.80;1.00;;;;;;;14.16;50.54;101610.97;5048855;28;20125;-69
2021/04/23 04:35:48;;;;;;;2.03;1.08;;;;;;;14.33;50.34;101613.00;5048584;28;20032;-68
2021/04/23 04:38:16;;;;;;;1.70;0.90;;;;;;;14.52;50.30;101615.94;5048732;28;20095;-68
2021/04/23 04:40:46;;;;;;;1.90;1.00;;;;;;;14.73;50.21;101621.53;5049062;28;20049;-69
2021/04/23 04:43:15;;;;;;;1.23;0.75;;;;;;;14.94;50.09;101623.56;5049388;28;20095;-69
2021/04/23 04:45:43;;;;;;;1.30;1.00;;;;;;;15.14;50.19;101628.22;5048832;28;20572;-69
2021/04/23 04:48:11;;;;;;;2.63;1.08;;;;;;;15.36;50.02;101625.78;5049646;28;20457;-69
2021/04/23 04:50:43;;;;;;;1.48;0.90;;;;;;;15.59;50.08;101620.72;5048610;28;20048;-69
2021/04/23 04:53:11;;;;;;;3.33;0.90;;;;;;;15.81;49.95;101623.56;5047514;28;20477;-69
2021/04/23 04:55:40;;;;;;;3.15;1.30;;;;;;;16.02;49.58;101619.25;5048141;28;20127;-69
2021/04/23 04:58:11;;;;;;;2.30;0.90;;;;;;;16.23;49.24;101636.28;5045834;28;20040;-69
2021/04/23 05:00:40;;;;;;;2.30;0.93;;;;;;;16.41;48.99;101630.16;5048248;28;20041;-69
2021/04/23 05:03:07;;;;;;;2.78;1.10;;;;;;;16.63;48.79;101641.88;5047664;28;20121;-69
2021/04/23 05:05:34;;;;;;;1.52;0.82;;;;;;;16.87;48.29;101643.78;5048627;28;20584;-69
2021/04/23 05:08:03;;;;;;;2.28;1.10;;;;;;;17.06;47.96;101642.97;5049189;28;20066;-69
2021/04/23 05:10:31;;;;;;;1.58;0.70;;;;;;;17.24;47.55;101647.44;5047189;28;20044;-69
2021/04/23 05:12:59;;;;;;;3.03;1.00;;;;;;;17.45;47.15;101650.19;5048234;28;20051;-69
2021/04/23 05:15:28;;;;;;;0.85;0.70;;;;;;;17.62;45.97;101652.88;5038809;28;20041;-70
2021/04/23 05:17:55;;;;;;;1.33;0.90;;;;;;;17.72;45.14;101654.69;5049208;28;20524;-69
2021/04/23 05:20:24;;;;;;;2.60;0.90;;;;;;;17.91;44.82;101646.69;5031798;28;20095;-69
2021/04/23 05:22:51;;;;;;;0.77;0.57;;;;;;;18.15;44.28;101648.44;5042857;28;20043;-69
2021/04/23 05:25:21;;;;;;;0.90;0.57;;;;;;;18.35;43.99;101656.44;5047685;28;20076;-69
2021/04/23 05:27:48;;;;;;;1.52;0.77;;;;;;;18.69;43.64;101651.91;5047321;28;20132;-69
2021/04/23 05:30:19;;;;;;;1.50;0.75;;;;;;;19.01;43.25;101657.13;5046695;28;20033;-69
2021/04/23 05:32:48;;;;;;;1.38;0.70;;;;;;;19.26;43.02;101669.50;5038029;28;20425;-69
2021/04/23 05:35:17;;;;;;;1.52;1.00;;;;;;;19.60;42.24;101659.50;5047912;28;20124;-69
2021/04/23 05:37:44;;;;;;;1.92;0.82;;;;;;;19.81;41.55;101664.69;5044441;28;20061;-69
2021/04/23 05:40:15;;;;;;;2.65;0.73;;;;;;;20.06;41.21;101669.84;5043745;28;20052;-70
2021/04/23 05:42:44;;;;;;;1.20;0.80;;;;;;;20.34;40.92;101662.47;5046774;28;20052;-69
2021/04/23 05:45:12;;;;;;;2.10;0.70;;;;;;;20.58;40.49;101664.88;5042856;28;20030;-70
2021/04/23 05:47:41;;;;;;;2.10;0.80;;;;;;;20.84;40.04;101659.22;5044134;28;20065;-70
2021/04/23 05:50:10;;;;;;;2.10;0.80;;;;;;;21.06;39.41;101658.03;5047895;28;20059;-70
2021/04/23 05:52:37;;;;;;;1.27;0.82;;;;;;;21.29;38.63;101653.25;5044774;28;20127;-70
2021/04/23 05:55:05;;;;;;;2.15;0.75;;;;;;;21.50;37.68;101660.13;5043105;28;20068;-70
2021/04/23 05:57:32;;;;;;;1.60;0.57;;;;;;;21.72;37.20;101660.69;5045649;28;20037;-70
2021/04/23 06:00:00;;;;;;;1.95;0.75;;;;;;;22.00;36.37;101653.06;5046216;28;20110;-70
2021/04/23 06:02:28;;;;;;;1.95;1.20;;;;;;;22.22;35.29;101651.78;5042650;28;20582;-71
2021/04/23 06:04:56;;;;;;;3.85;1.60;;;;;;;22.37;34.84;101654.22;5047084;28;20044;-70
2021/04/23 06:07:23;;;;;;;3.30;1.00;;;;;;;22.54;34.17;101651.19;5049224;28;20037;-71
2021/04/23 06:09:50;;;;;;;1.75;0.80;;;;;;;22.75;34.07;101657.97;5042900;28;20580;-70
2021/04/23 06:12:17;;;;;;;1.65;0.80;;;;;;;22.89;34.13;101656.78;5048000;28;20045;-70
2021/04/23 06:14:44;;;;;;;1.95;0.70;;;;;;;22.97;33.68;101659.31;5050600;28;20033;-70
2021/04/23 06:17:12;;;;;;;2.08;0.77;;;;;;;23.09;33.70;101664.44;5050140;28;20385;-71
2021/04/23 06:19:39;;;;;;;1.48;1.10;;;;;;;23.20;33.56;101657.00;5052236;28;20086;-71
2021/04/23 06:22:08;;;;;;;2.65;1.90;;;;;;;23.34;32.99;101654.88;5050442;28;20536;-71
2021/04/23 06:24:35;;;;;;;2.35;1.50;;;;;;;23.48;32.45;101651.03;5050740;28;20048;-71
2021/04/23 06:27:03;;;;;;;1.92;1.20;;;;;;;23.66;32.46;101654.16;5051707;28;20043;-72
2021/04/23 06:29:32;;;;;;;3.05;1.40;;;;;;;23.70;32.48;101649.56;5049811;28;20064;-70
2021/04/23 06:32:00;;;;;;;2.78;1.42;;;;;;;23.82;32.35;101641.22;5035331;28;20044;-71
2021/04/23 06:34:28;;;;;;;4.30;1.85;;;;;;;24.02;32.17;101638.00;5051401;28;20408;-72
2021/04/23 06:36:55;;;;;;;1.90;1.20;;;;;;;24.05;31.84;101638.78;5051882;28;20123;-71
2021/04/23 06:39:22;;;;;;;1.73;1.20;;;;;;;24.10;32.46;101634.16;5048832;28;20131;-71
2021/04/23 06:41:50;;;;;;;2.00;1.00;;;;;;;24.29;32.97;101631.00;5050325;28;20496;-70
2021/04/23 06:44:17;;;;;;;1.60;1.02;;;;;;;24.32;32.91;101623.72;5050935;28;20120;-70
2021/04/23 06:46:45;;;;;;;2.10;1.00;;;;;;;24.23;32.65;101622.13;5050861;28;20041;-70
2021/04/23 06:49:13;;;;;;;3.10;0.80;;;;;;;24.41;32.40;101618.06;5049180;28;20435;-71
2021/04/23 06:51:41;;;;;;;2.67;1.10;;;;;;;24.57;32.53;101619.38;5050933;28;20624;-71
2021/04/23 06:54:09;;;;;;;2.33;1.05;;;;;;;24.68;32.22;101616.38;5050832;28;20090;-71
2021/04/23 06:56:36;;;;;;;3.17;1.27;;;;;;;24.83;31.74;101615.03;5049092;28;20117;-71
2021/04/23 06:59:04;;;;;;;9.27;1.27;;;;;;;24.89;31.38;101615.78;5050271;28;20124;-71
2021/04/23 07:01:31;;;;;;;4.03;1.05;;;;;;;24.76;30.92;101611.63;5051446;28;20536;-71
2021/04/23 07:03:58;;;;;;;2.15;0.80;;;;;;;24.83;31.33;101606.94;5050776;28;20067;-71
2021/04/23 07:06:25;;;;;;;1.35;0.70;;;;;;;24.95;31.29;101620.09;5050900;28;20128;-71
2021/04/23 07:08:54;;;;;;;3.05;0.82;;;;;;;24.95;31.45;101612.88;5051297;28;20033;-72
2021/04/23 07:11:21;;;;;;;2.10;0.80;;;;;;;25.12;31.35;101615.09;5050316;28;20546;-73
2021/04/23 07:13:48;;;;;;;0.75;0.63;;;;;;;25.21;30.14;101622.00;5050863;28;20041;-74
2021/04/23 07:16:15;;;;;;;1.25;0.80;;;;;;;25.10;29.60;101611.53;5049963;28;20641;-73
2021/04/23 07:18:43;;;;;;;1.50;0.70;;;;;;;25.28;29.54;101616.38;5050735;28;20057;-73
2021/04/23 07:21:10;;;;;;;1.73;0.88;;;;;;;25.44;29.25;101619.47;5050502;28;20119;-73
2021/04/23 07:23:37;;;;;;;1.90;0.73;;;;;;;25.58;28.75;101613.66;5050173;28;20135;-73
2021/04/23 07:26:05;;;;;;;1.40;0.85;;;;;;;25.63;27.62;101620.69;5050002;28;20574;-72
2021/04/23 07:28:32;;;;;;;0.60;0.40;;;;;;;25.63;27.91;101620.69;5049151;28;20128;-72
2021/04/23 07:31:00;;;;;;;0.70;0.47;;;;;;;25.73;27.25;101626.69;5049940;28;20120;-72
2021/04/23 07:33:28;;;;;;;1.10;1.00;;;;;;;25.74;26.03;101639.25;5049942;28;20724;-71
2021/04/23 07:35:55;;;;;;;0.65;0.65;;;;;;;25.76;26.11;101646.41;5050977;28;20628;-71
2021/04/23 07:38:23;;;;;;;1.70;0.70;;;;;;;25.79;25.55;101645.41;5029284;28;20060;-71
2021/04/23 07:40:51;;;;;;;2.50;0.50;;;;;;;25.82;25.68;101656.13;5031375;28;20048;-70
2021/04/23 07:43:19;;;;;;;1.08;0.47;;;;;;;25.57;24.89;101656.06;5048885;28;20056;-71
2021/04/23 07:45:46;;;;;;;2.22;0.80;;;;;;;25.54;25.19;101655.22;5050081;28;20123;-71
2021/04/23 07:48:13;;;;;;;1.40;0.60;;;;;;;25.75;24.64;101659.97;5049605;28;20029;-71
2021/04/23 07:50:41;;;;;;;2.13;1.02;;;;;;;25.66;24.50;101657.59;5049899;28;20037;-71
2021/04/23 07:53:08;;;;;;;1.45;1.00;;;;;;;25.78;24.68;101655.34;5049136;28;20404;-71
2021/04/23 07:55:35;;;;;;;1.35;0.70;;;;;;;25.83;24.91;101648.91;5049909;28;20128;-71
2021/04/23 07:58:02;;;;;;;0.77;0.65;;;;;;;25.89;25.15;101648.69;5031283;28;20060;-71
2021/04/23 08:00:30;;;;;;;3.00;1.00;;;;;;;25.93;25.48;101653.09;5041732;28;20217;-71
2021/04/23 08:02:57;;;;;;;4.32;0.90;;;;;;;25.93;25.29;101663.91;5049827;28;20171;-74
2021/04/23 08:05:26;;;;;;;1.95;1.00;;;;;;;25.79;25.42;101664.38;5050365;28;20041;-71
2021/04/23 08:07:54;;;;;;;2.25;0.90;;;;;;;25.70;25.37;101659.25;5049377;28;20659;-71
2021/04/23 08:10:22;;;;;;;2.78;0.80;;;;;;;25.61;25.46;101660.41;5045380;28;20139;-71
2021/04/23 08:12:51;;;;;;;2.08;0.60;;;;;;;25.55;25.56;101655.16;5047495;28;20033;-71
2021/04/23 08:15:18;;;;;;;1.55;0.70;;;;;;;25.49;25.18;101659.88;5048312;28;20087;-71
2021/04/23 08:17:47;;;;;;;0.95;0.70;;;;;;;25.66;25.75;101657.59;5047375;28;20124;-71
2021/04/23 08:20:15;;;;;;;4.07;0.73;;;;;;;25.87;25.48;101664.06;5030598;28;20124;-72
2021/04/23 08:22:43;;;;;;;0.85;0.60;;;;;;;25.75;25.10;101657.25;5046901;28;20386;-72
2021/04/23 08:25:12;;;;;;;1.88;0.70;;;;;;;25.89;24.91;101659.50;5047501;28;20571;-71
2021/04/23 08:27:40;;;;;;;2.25;0.95;;;;;;;26.10;24.28;101651.56;5041937;28;20044;-72
2021/04/23 08:30:10;;;;;;;1.50;0.80;;;;;;;26.26;24.49;101651.03;5048507;28;20112;-71
2021/04/23 08:32:38;;;;;;;1.13;0.80;;;;;;;26.17;23.87;101642.28;5049529;28;20037;-72
2021/04/23 08:35:09;;;;;;;1.23;0.73;;;;;;;26.08;23.68;101641.72;5046343;28;20112;-71
2021/04/23 08:37:36;;;;;;;1.50;0.77;;;;;;;26.05;24.26;101636.41;5012183;28;20545;-72
2021/04/23 08:40:06;;;;;;;2.47;0.70;;;;;;;26.23;24.13;101643.00;5034832;28;20631;-72
2021/04/23 08:42:33;;;;;;;1.88;0.70;;;;;;;26.00;23.94;101643.78;5031324;28;20043;-71
2021/04/23 08:45:02;;;;;;;1.83;0.85;;;;;;;26.07;24.38;101651.66;5047756;28;20049;-71
2021/04/23 08:47:30;;;;;;;1.63;0.63;;;;;;;25.97;24.32;101643.91;5048795;28;20666;-72
2021/04/23 08:49:59;;;;;;;3.00;0.80;;;;;;;26.00;24.23;101651.91;5049120;28;20041;-71
2021/04/23 08:52:28;;;;;;;1.05;0.70;;;;;;;26.10;24.15;101654.25;5049085;28;20045;-71
2021/04/23 08:54:56;;;;;;;1.05;0.77;;;;;;;26.25;24.31;101657.41;5049397;28;20452;-71
2021/04/23 08:57:23;;;;;;;1.15;0.40;;;;;;;26.44;23.80;101661.25;5049213;28;20091;-72
2021/04/23 08:59:50;;;;;;;1.85;0.70;;;;;;;26.29;23.69;101650.94;5048916;28;20131;-72
2021/04/23 09:02:18;;;;;;;1.90;0.82;;;;;;;26.06;23.35;101654.41;5048761;28;20078;-71
2021/04/23 09:04:45;;;;;;;2.42;0.70;;;;;;;25.92;22.85;101649.47;5048988;28;20045;-71
2021/04/23 09:07:12;;;;;;;1.48;0.70;;;;;;;25.75;22.69;101649.16;5048684;28;20029;-70
2021/04/23 09:09:42;;;;;;;3.45;0.70;;;;;;;25.80;23.16;101641.75;5048094;28;20069;-71
2021/04/23 09:12:21;;;;;;;2.05;0.55;;;;;;;25.96;22.84;101648.44;5049067;28;20037;-71
2021/04/23 09:14:49;;;;;;;1.02;0.50;;;;;;;26.00;22.73;101641.06;5048973;28;20725;-71
2021/04/23 09:17:21;;;;;;;1.65;0.80;;;;;;;26.01;22.83;101646.44;5048387;28;20037;-71
2021/04/23 09:19:49;;;;;;;2.22;0.85;;;;;;;26.15;22.94;101649.56;5048363;28;20566;-70
2021/04/23 09:22:29;;;;;;;1.42;0.57;;;;;;;26.14;22.52;101650.50;5048340;28;20141;-71
2021/04/23 09:25:01;;;;;;;2.85;1.20;;;;;;;26.11;22.17;101653.34;5048023;28;20045;-71
2021/04/23 09:27:30;;;;;;;5.85;2.70;;;;;;;26.03;22.64;101647.28;5048242;28;20029;-73
2021/04/23 09:30:01;;;;;;;5.15;2.40;;;;;;;25.99;22.94;101652.88;5048827;28;20132;-71
2021/04/23 09:32:30;;;;;;;2.58;0.95;;;;;;;26.16;23.81;101656.75;5048154;28;20394;-72
2021/04/23 09:35:00;;;;;;;1.42;0.63;;;;;;;26.12;23.08;101655.06;5048070;28;20119;-74
2021/04/23 09:37:29;;;;;;;1.75;0.80;;;;;;;26.36;22.83;101656.09;5048832;28;20099;-71
2021/04/23 09:40:09;;;;;;;1.67;0.50;;;;;;;26.66;21.85;101664.91;5048670;28;20116;-70
2021/04/23 09:42:47;;;;;;;0.80;0.60;;;;;;;26.56;21.81;101658.09;5048360;28;20680;-71
2021/04/23 09:45:15;;;;;;;0.80;0.43;;;;;;;26.36;21.51;101653.38;5047998;28;20029;-72
2021/04/23 09:47:43;;;;;;;2.15;0.70;;;;;;;26.39;21.88;101653.25;5048473;28;20040;-71
2021/04/23 09:50:12;;;;;;;1.08;0.65;;;;;;;26.36;22.21;101653.38;5047860;28;20099;-71
2021/04/23 09:52:48;;;;;;;1.10;0.60;;;;;;;26.52;22.59;101646.47;5048390;28;20129;-71
2021/04/23 09:55:18;;;;;;;2.92;0.93;;;;;;;26.87;23.20;101644.28;5048620;28;20049;-71
2021/04/23 09:57:50;;;;;;;1.50;0.60;;;;;;;26.75;23.15;101642.91;5048758;28;20095;-71
2021/04/23 10:00:19;;;;;;;1.80;0.98;;;;;;;26.81;23.55;101639.97;5047921;28;20086;-71
2021/04/23 10:02:50;;;;;;;3.10;1.10;;;;;;;26.69;23.58;101626.88;5038974;28;20037;-71
2021/04/23 10:05:34;;;;;;;2.38;1.13;;;;;;;26.65;23.55;101627.94;5048430;28;20029;-72
2021/04/23 10:08:01;;;;;;;4.78;1.05;;;;;;;26.61;23.55;101618.16;5048212;28;20064;-71
2021/04/23 10:10:30;;;;;;;3.95;1.08;;;;;;;26.52;23.47;101621.19;5048405;28;20045;-71
2021/04/23 10:13:00;;;;;;;2.17;1.00;;;;;;;26.54;23.57;101622.91;5048611;28;20060;-70
2021/04/23 10:15:29;;;;;;;2.15;0.70;;;;;;;26.48;22.99;101620.44;5044142;28;20040;-70
2021/04/23 10:17:58;;;;;;;1.25;0.50;;;;;;;26.42;22.88;101615.25;5031965;28;20046;-70
2021/04/23 10:20:26;;;;;;;1.35;0.90;;;;;;;26.36;23.13;101617.28;5047847;28;20132;-70
2021/04/23 10:22:55;;;;;;;0.80;0.68;;;;;;;26.53;22.83;101617.53;5047321;28;20091;-71
2021/04/23 10:25:24;;;;;;;1.38;0.60;;;;;;;26.49;22.95;101602.34;5047530;28;20044;-70
2021/04/23 10:27:53;;;;;;;2.60;0.68;;;;;;;26.49;23.05;101605.06;5047465;28;20116;-70
2021/04/23 10:30:22;;;;;;;1.58;0.50;;;;;;;26.53;23.27;101598.59;5048132;28;20113;-71
2021/04/23 10:32:50;;;;;;;4.65;0.75;;;;;;;26.40;23.01;101606.28;5047989;28;20116;-70
2021/04/23 10:35:18;;;;;;;1.42;0.50;;;;;;;26.41;23.21;101602.63;5047720;28;20045;-70
2021/04/23 10:37:47;;;;;;;1.60;0.52;;;;;;;26.36;22.84;101609.16;5028792;28;20454;-71
2021/04/23 10:40:16;;;;;;;1.52;0.75;;;;;;;26.30;22.80;101603.97;5028815;28;20092;-70
2021/04/23 10:42:53;;;;;;;1.10;0.60;;;;;;;26.20;21.97;101611.50;5047586;28;20030;-70
2021/04/23 10:45:34;;;;;;;1.73;0.43;;;;;;;25.95;21.70;101608.78;5047524;28;20048;-70
2021/04/23 10:48:03;;;;;;;0.75;0.60;;;;;;;26.02;22.41;101612.16;5047341;28;20040;-70
2021/04/23 10:50:39;;;;;;;1.67;0.75;;;;;;;26.02;22.48;101609.44;5047016;28;20041;-71
2021/04/23 10:53:09;;;;;;;1.05;0.70;;;;;;;26.04;22.76;101613.88;5032633;28;20420;-70
2021/04/23 10:55:39;;;;;;;0.93;0.50;;;;;;;25.98;22.95;101605.97;5050938;28;20041;-71
2021/04/23 10:58:08;;;;;;;2.00;0.77;;;;;;;26.04;23.17;101597.63;5050913;28;20120;-70
2021/04/23 11:00:40;;;;;;;3.42;0.80;;;;;;;26.15;23.22;101595.41;5051179;28;20082;-70
2021/04/23 11:03:33;;;;;;;1.15;0.63;;;;;;;26.35;23.57;101589.31;5050534;28;20124;-70
2021/04/23 11:06:04;;;;;;;1.15;0.70;;;;;;;26.23;23.36;101586.16;5032365;28;20501;-71
2021/04/23 11:08:32;;;;;;;1.85;0.70;;;;;;;26.16;23.73;101583.66;5051014;28;20040;-71
2021/04/23 11:11:19;;;;;;;1.05;0.70;;;;;;;26.40;23.78;101583.72;5050833;28;20112;-70
2021/04/23 11:13:50;;;;;;;1.65;0.77;;;;;;;26.53;23.72;101590.47;5049239;28;20053;-70
2021/04/23 11:16:31;;;;;;;2.63;0.85;;;;;;;26.62;23.87;101587.41;5050269;28;20485;-70
2021/04/23 11:19:20;;;;;;;1.00;0.50;;;;;;;26.94;23.64;101587.09;5035015;28;20064;-72
2021/04/23 11:21:47;;;;;;;1.58;0.60;;;;;;;27.25;23.83;101577.72;5050879;28;20048;-70
2021/04/23 11:24:16;;;;;;;1.33;0.65;;;;;;;27.57;23.79;101571.03;5050278;28;20061;-70
2021/04/23 11:27:04;;;;;;;1.48;0.60;;;;;;;27.91;23.16;101576.78;5050758;28;20036;-70
2021/04/23 11:29:34;;;;;;;0.77;0.60;;;;;;;28.09;23.38;101580.53;5049787;28;20045;-72
2021/04/23 11:32:06;;;;;;;1.27;0.60;;;;;;;28.23;23.56;101582.63;5049344;28;20117;-71